createdAt,value
2023-04-21T00:00:22.788Z,11.23
2023-04-21T00:03:24.623Z,11.13
2023-04-21T00:06:27.046Z,10.88
2023-04-21T00:09:28.727Z,11.73
2023-04-21T00:12:29.510Z,10.70
2023-04-21T00:15:30.912Z,11.93
2023-04-21T00:18:31.954Z,11.90
2023-04-21T00:21:36.600Z,12.55
2023-04-21T00:24:37.542Z,12.65
2023-04-21T00:27:38.563Z,11.80
2023-04-21T00:30:39.433Z,11.90
2023-04-21T00:33:41.095Z,11.63
2023-04-21T00:36:42.264Z,13.15
2023-04-21T00:39:43.250Z,9.57
2023-04-21T00:42:44.520Z,12.15
2023-04-21T00:45:48.294Z,10.32
2023-04-21T00:48:49.170Z,12.63
2023-04-21T00:51:52.433Z,11.52
2023-04-21T00:54:54.942Z,8.85
2023-04-21T00:57:56.816Z,8.90
2023-04-21T01:01:02.005Z,7.78
2023-04-21T01:04:05.466Z,9.80
2023-04-21T01:07:08.115Z,7.90
2023-04-21T01:10:09.420Z,8.25
2023-04-21T01:13:10.258Z,8.13
2023-04-21T01:16:18.350Z,9.80
2023-04-21T01:19:21.060Z,7.85
2023-04-21T01:22:22.142Z,8.43
2023-04-21T01:25:26.158Z,7.63
2023-04-21T01:28:27.393Z,7.65
2023-04-21T01:31:28.320Z,7.28
2023-04-21T01:34:29.518Z,7.65
2023-04-21T01:37:34.178Z,7.50
2023-04-21T01:40:35.241Z,10.02
2023-04-21T01:43:37.370Z,8.65
2023-04-21T01:46:38.811Z,8.18
2023-04-21T01:49:39.842Z,10.45
2023-04-21T01:52:42.187Z,8.10
2023-04-21T01:55:43.494Z,8.70
2023-04-21T01:58:44.194Z,9.40
2023-04-21T02:01:45.439Z,9.38
2023-04-21T02:04:46.820Z,9.20
2023-04-21T02:07:47.909Z,8.23
2023-04-21T02:10:49.472Z,8.35
2023-04-21T02:13:50.596Z,7.65
2023-04-21T02:16:51.897Z,9.07
2023-04-21T02:19:53.167Z,9.18
2023-04-21T02:22:55.870Z,8.93
2023-04-21T02:25:56.930Z,9.60
2023-04-21T02:28:57.664Z,8.60
2023-04-21T02:32:07.837Z,9.07
2023-04-21T02:35:15.810Z,9.52
2023-04-21T02:38:16.795Z,8.40
2023-04-21T02:41:17.836Z,9.02
2023-04-21T02:44:18.926Z,8.68
2023-04-21T02:47:20.304Z,8.05
2023-04-21T02:50:21.792Z,10.55
2023-04-21T02:53:22.757Z,11.20
2023-04-21T02:56:25.761Z,9.95
2023-04-21T02:59:26.493Z,11.75
2023-04-21T03:02:27.993Z,12.43
2023-04-21T03:05:29.511Z,12.38
2023-04-21T03:08:31.940Z,11.68
2023-04-21T03:11:33.754Z,11.52
2023-04-21T03:14:34.708Z,13.32
2023-04-21T03:17:35.770Z,11.70
2023-04-21T03:20:37.043Z,13.55
2023-04-21T03:23:38.026Z,12.32
2023-04-21T03:26:43.557Z,13.45
2023-04-21T03:29:44.681Z,13.98
2023-04-21T03:32:45.668Z,13.10
2023-04-21T03:35:47.125Z,15.13
2023-04-21T03:38:48.217Z,13.23
2023-04-21T03:41:49.124Z,15.45
2023-04-21T03:44:50.549Z,17.65
2023-04-21T03:47:55.924Z,19.48
2023-04-21T03:50:56.912Z,15.38
2023-04-21T03:53:57.992Z,18.45
2023-04-21T03:56:58.938Z,17.50
2023-04-21T04:00:00.041Z,19.38
2023-04-21T04:03:01.292Z,18.98
2023-04-21T04:06:04.379Z,16.77
2023-04-21T04:09:05.592Z,18.45
2023-04-21T04:12:06.675Z,18.70
2023-04-21T04:15:08.402Z,18.13
2023-04-21T04:18:09.373Z,22.33
2023-04-21T04:21:10.180Z,23.23
2023-04-21T04:24:11.761Z,20.02
2023-04-21T04:27:14.384Z,26.33
2023-04-21T04:30:15.782Z,21.58
2023-04-21T04:33:16.733Z,21.05
2023-04-21T04:36:17.552Z,24.55
2023-04-21T04:39:18.519Z,24.23
2023-04-21T04:42:20.526Z,24.70
2023-04-21T04:45:22.460Z,24.20
2023-04-21T04:48:24.677Z,25.20
2023-04-21T04:51:25.923Z,24.65
2023-04-21T04:54:29.215Z,26.55
2023-04-21T04:57:31.561Z,29.27
2023-04-21T05:00:32.957Z,30.17
2023-04-21T05:03:34.381Z,32.28
2023-04-21T05:06:35.626Z,32.00
2023-04-21T05:09:36.847Z,35.53
2023-04-21T05:12:37.705Z,33.45
2023-04-21T05:15:38.418Z,36.05
2023-04-21T05:18:39.338Z,29.63
2023-04-21T05:21:40.471Z,31.65
2023-04-21T05:24:43.144Z,32.28
2023-04-21T05:27:44.272Z,33.58
2023-04-21T05:30:45.020Z,38.65
2023-04-21T05:33:46.337Z,39.30
2023-04-21T05:36:49.216Z,34.63
2023-04-21T05:39:51.356Z,39.60
2023-04-21T05:42:52.412Z,37.58
2023-04-21T05:45:53.538Z,30.25
2023-04-21T05:48:54.667Z,28.60
2023-04-21T05:51:56.028Z,27.30
2023-04-21T05:55:02.383Z,26.35
2023-04-21T05:58:04.448Z,28.20
2023-04-21T06:01:09.129Z,25.88
2023-04-21T06:04:10.566Z,23.15
2023-04-21T06:07:13.826Z,23.27
2023-04-21T06:10:15.133Z,23.52
2023-04-21T06:13:16.256Z,17.75
2023-04-21T06:16:17.723Z,14.35
2023-04-21T06:19:18.651Z,13.48
2023-04-21T06:22:24.144Z,13.70
2023-04-21T06:25:25.193Z,11.65
2023-04-21T06:28:26.157Z,11.00
2023-04-21T06:31:27.368Z,11.27
2023-04-21T06:34:28.364Z,9.45
2023-04-21T06:37:29.300Z,9.93
2023-04-21T06:40:30.413Z,10.45
2023-04-21T06:43:31.568Z,9.20
2023-04-21T06:46:32.923Z,9.68
2023-04-21T06:49:34.532Z,9.45
2023-04-21T06:52:35.526Z,8.63
2023-04-21T06:55:36.457Z,9.80
2023-04-21T06:58:37.277Z,5.60
2023-04-21T07:01:38.365Z,7.55
2023-04-21T07:04:42.872Z,6.68
2023-04-21T07:07:44.117Z,6.32
2023-04-21T07:10:45.019Z,5.18
2023-04-21T07:13:46.610Z,4.63
2023-04-21T07:16:47.733Z,3.22
2023-04-21T07:19:48.439Z,3.75
2023-04-21T07:22:49.345Z,3.92
2023-04-21T07:25:51.890Z,3.38
2023-04-21T07:28:53.136Z,3.72
2023-04-21T07:31:55.324Z,7.22
2023-04-21T07:34:56.759Z,3.28
2023-04-21T07:37:58.049Z,3.53
2023-04-21T07:41:00.390Z,3.47
2023-04-21T07:44:01.593Z,3.50
2023-04-21T07:47:02.799Z,3.28
2023-04-21T07:50:04.372Z,3.80
2023-04-21T07:53:05.772Z,3.65
2023-04-21T07:56:07.707Z,3.40
2023-04-21T07:59:09.055Z,4.10
2023-04-21T08:02:10.379Z,3.45
2023-04-21T08:05:11.623Z,3.60
2023-04-21T08:08:12.963Z,3.95
2023-04-21T08:11:13.908Z,3.35
2023-04-21T08:14:15.113Z,3.00
2023-04-21T08:17:16.525Z,3.15
2023-04-21T08:20:17.727Z,2.78
2023-04-21T08:23:19.076Z,2.80
2023-04-21T08:26:21.937Z,3.63
2023-04-21T08:29:23.032Z,3.35
2023-04-21T08:32:24.781Z,3.55
2023-04-21T08:35:25.971Z,3.58
2023-04-21T08:38:26.798Z,3.65
2023-04-21T08:41:28.046Z,3.72
2023-04-21T08:44:29.029Z,3.88
2023-04-21T08:47:31.247Z,2.97
2023-04-21T08:50:34.175Z,2.95
2023-04-21T08:53:35.590Z,3.35
2023-04-21T08:56:36.629Z,3.42
2023-04-21T08:59:37.854Z,3.67
2023-04-21T09:03:00.961Z,3.58
2023-04-21T09:06:06.856Z,3.05
2023-04-21T09:09:08.072Z,4.70
2023-04-21T09:12:08.926Z,3.45
2023-04-21T09:15:12.817Z,2.97
2023-04-21T09:18:16.766Z,3.13
2023-04-21T09:21:20.058Z,3.75
2023-04-21T09:24:21.538Z,3.53
2023-04-21T09:27:22.338Z,27.45
2023-04-21T09:30:23.396Z,4.78
2023-04-21T09:33:30.616Z,4.32
2023-04-21T09:36:33.427Z,4.22
2023-04-21T09:39:49.258Z,3.17
2023-04-21T09:42:55.189Z,3.40
2023-04-21T09:45:58.163Z,2.97
2023-04-21T09:49:01.998Z,4.20
2023-04-21T09:55:14.036Z,2.88
2023-04-21T09:58:22.718Z,3.15
2023-04-21T10:01:27.742Z,2.88
2023-04-21T10:04:32.449Z,3.03
2023-04-21T10:07:33.815Z,2.65
2023-04-21T10:10:35.909Z,3.47
2023-04-21T10:13:38.882Z,3.22
2023-04-21T10:16:40.069Z,4.88
2023-04-21T10:19:54.243Z,2.63
2023-04-21T10:22:58.935Z,3.13
2023-04-21T10:26:15.405Z,3.92
2023-04-21T10:29:16.698Z,6.03
2023-04-21T10:32:42.671Z,3.70
2023-04-21T10:36:05.174Z,3.10
2023-04-21T10:39:06.382Z,2.63
2023-04-21T10:42:13.574Z,2.78
2023-04-21T10:45:14.775Z,2.60
2023-04-21T10:48:16.133Z,2.58
2023-04-21T10:51:16.886Z,3.33
2023-04-21T10:54:18.289Z,2.83
2023-04-21T10:57:20.840Z,4.47
2023-04-21T11:00:24.632Z,5.47
2023-04-21T11:03:25.823Z,3.28
2023-04-21T11:06:27.426Z,3.33
2023-04-21T11:09:28.128Z,2.65
2023-04-21T11:12:34.448Z,2.85
2023-04-21T11:15:35.799Z,4.28
2023-04-21T11:18:42.449Z,2.70
2023-04-21T11:21:43.151Z,4.33
2023-04-21T11:24:48.923Z,2.58
2023-04-21T11:28:00.217Z,2.60
2023-04-21T11:31:01.315Z,3.17
2023-04-21T11:34:05.609Z,2.97
2023-04-21T11:37:23.354Z,3.80
2023-04-21T11:40:24.669Z,3.38
2023-04-21T11:43:26.500Z,6.90
2023-04-21T11:46:29.177Z,3.22
2023-04-21T11:49:30.789Z,2.80
2023-04-21T11:52:37.733Z,3.55
2023-04-21T11:58:46.172Z,5.05
2023-04-21T12:01:52.107Z,2.25
2023-04-21T12:05:04.415Z,3.03
2023-04-21T12:08:06.561Z,2.20
2023-04-21T12:11:07.704Z,2.03
2023-04-21T12:14:09.399Z,2.15
2023-04-21T12:17:11.001Z,2.00
2023-04-21T12:20:15.649Z,1.75
2023-04-21T12:23:16.738Z,3.42
2023-04-21T12:26:17.736Z,2.70
2023-04-21T12:29:18.789Z,2.08
2023-04-21T12:32:22.058Z,2.10
2023-04-21T12:35:24.156Z,2.38
2023-04-21T12:38:25.490Z,1.50
2023-04-21T12:41:26.387Z,2.45
2023-04-21T12:44:27.745Z,1.30
2023-04-21T12:47:28.984Z,1.42
2023-04-21T12:50:29.999Z,1.23
2023-04-21T12:53:32.468Z,1.40
2023-04-21T12:56:33.492Z,2.53
2023-04-21T12:59:34.808Z,1.50
2023-04-21T13:02:37.479Z,1.20
2023-04-21T13:05:38.790Z,1.42
2023-04-21T13:08:40.335Z,1.63
2023-04-21T13:11:41.318Z,1.70
2023-04-21T13:14:42.105Z,2.78
2023-04-21T13:17:43.032Z,1.50
2023-04-21T13:20:43.867Z,3.47
2023-04-21T13:23:44.731Z,1.30
2023-04-21T13:26:45.870Z,1.55
2023-04-21T13:29:47.900Z,1.67
2023-04-21T13:32:50.380Z,1.58
2023-04-21T13:35:52.016Z,2.42
2023-04-21T13:38:55.534Z,1.80
2023-04-21T13:41:56.982Z,2.17
2023-04-21T13:44:58.176Z,2.20
2023-04-21T13:47:59.226Z,3.70
2023-04-21T13:51:01.140Z,2.28
2023-04-21T13:54:01.988Z,3.53
2023-04-21T13:57:03.027Z,3.13
2023-04-21T14:00:12.209Z,2.92
2023-04-21T14:03:14.269Z,3.55
2023-04-21T14:06:16.757Z,4.97
2023-04-21T14:09:18.335Z,5.50
2023-04-21T14:12:19.517Z,7.60
2023-04-21T14:15:20.529Z,5.18
2023-04-21T14:18:21.862Z,4.93
2023-04-21T14:21:23.026Z,5.05
2023-04-21T14:24:24.377Z,6.13
2023-04-21T14:27:25.200Z,5.32
2023-04-21T14:30:26.190Z,7.65
2023-04-21T14:33:27.622Z,5.88
2023-04-21T14:36:28.946Z,7.10
2023-04-21T14:39:29.786Z,5.60
2023-04-21T14:42:30.918Z,5.85
2023-04-21T14:45:32.662Z,5.95
2023-04-21T14:48:33.982Z,5.65
2023-04-21T14:51:35.165Z,5.72
2023-04-21T14:54:36.504Z,6.15
2023-04-21T14:57:37.675Z,6.88
2023-04-21T15:00:39.748Z,6.40
2023-04-21T15:03:41.047Z,6.80
2023-04-21T15:06:43.025Z,7.03
2023-04-21T15:09:45.952Z,6.25
2023-04-21T15:12:47.300Z,9.20
2023-04-21T15:15:48.333Z,6.07
2023-04-21T15:18:49.323Z,6.38
2023-04-21T15:21:50.484Z,6.13
2023-04-21T15:24:53.796Z,6.25
2023-04-21T15:27:55.538Z,7.28
2023-04-21T15:30:56.430Z,7.47
2023-04-21T15:33:58.176Z,7.63
2023-04-21T15:36:59.396Z,6.97
2023-04-21T15:40:00.733Z,7.38
2023-04-21T15:43:02.130Z,7.35
2023-04-21T15:46:04.691Z,7.20
2023-04-21T15:49:05.957Z,7.10
2023-04-21T15:52:07.300Z,6.75
2023-04-21T15:55:10.536Z,6.55
2023-04-21T15:58:13.819Z,6.03
2023-04-21T16:01:15.725Z,6.30
2023-04-21T16:04:17.242Z,6.82
2023-04-21T16:07:18.808Z,7.00
2023-04-21T16:10:19.882Z,6.45
2023-04-21T16:13:20.861Z,6.45
2023-04-21T16:16:22.272Z,7.10
2023-04-21T16:19:23.719Z,5.20
2023-04-21T16:22:24.826Z,5.22
2023-04-21T16:25:27.418Z,6.13
2023-04-21T16:28:28.588Z,7.43
2023-04-21T16:31:30.233Z,9.40
2023-04-21T16:34:31.167Z,6.05
2023-04-21T16:37:32.430Z,7.10
2023-04-21T16:40:33.875Z,7.10
2023-04-21T16:43:34.739Z,6.78
2023-04-21T16:46:36.390Z,6.70
2023-04-21T16:49:37.746Z,5.70
2023-04-21T16:52:38.915Z,6.88
2023-04-21T16:55:39.773Z,6.00
2023-04-21T16:58:41.307Z,5.80
2023-04-21T17:01:42.320Z,6.82
2023-04-21T17:04:43.915Z,5.32
2023-04-21T17:07:45.297Z,7.45
2023-04-21T17:10:46.577Z,5.97
2023-04-21T17:13:47.697Z,5.75
2023-04-21T17:16:49.134Z,7.88
2023-04-21T17:19:50.150Z,6.30
2023-04-21T17:22:51.415Z,6.20
2023-04-21T17:25:52.451Z,5.85
2023-04-21T17:28:53.859Z,4.93
2023-04-21T17:31:55.386Z,6.57
2023-04-21T17:34:56.473Z,5.60
2023-04-21T17:37:57.270Z,5.45
2023-04-21T17:40:59.578Z,6.78
2023-04-21T17:44:01.151Z,9.10
2023-04-21T17:47:03.501Z,6.60
2023-04-21T17:50:04.944Z,5.03
2023-04-21T17:53:06.557Z,6.68
2023-04-21T17:56:08.853Z,6.40
2023-04-21T17:59:09.830Z,6.10
2023-04-21T18:02:11.643Z,5.97
2023-04-21T18:05:13.896Z,6.05
2023-04-21T18:08:15.557Z,6.40
2023-04-21T18:11:16.613Z,6.28
2023-04-21T18:14:18.084Z,6.07
2023-04-21T18:17:19.231Z,6.45
2023-04-21T18:20:20.663Z,7.65
2023-04-21T18:23:21.863Z,7.20
2023-04-21T18:26:23.061Z,6.97
2023-04-21T18:29:24.352Z,7.65
2023-04-21T18:32:25.148Z,7.40
2023-04-21T18:35:26.248Z,6.40
2023-04-21T18:38:27.236Z,6.97
2023-04-21T18:41:28.504Z,6.50
2023-04-21T18:44:30.214Z,7.38
2023-04-21T18:47:35.159Z,7.32
2023-04-21T18:50:40.570Z,7.95
2023-04-21T18:53:43.514Z,7.68
2023-04-21T18:56:44.498Z,7.10
2023-04-21T18:59:45.247Z,7.55
2023-04-21T19:02:49.065Z,7.63
2023-04-21T19:05:50.205Z,7.78
2023-04-21T19:08:53.634Z,7.72
2023-04-21T19:11:54.827Z,7.32
2023-04-21T19:14:56.206Z,9.45
2023-04-21T19:17:57.395Z,7.55
2023-04-21T19:20:58.890Z,7.95
2023-04-21T19:24:00.304Z,7.03
2023-04-21T19:27:02.617Z,7.90
2023-04-21T19:30:05.575Z,7.32
2023-04-21T19:33:06.594Z,8.07
2023-04-21T19:36:07.725Z,7.70
2023-04-21T19:39:09.463Z,8.05
2023-04-21T19:42:10.296Z,8.98
2023-04-21T19:45:11.872Z,8.45
2023-04-21T19:48:12.687Z,9.68
2023-04-21T19:51:13.820Z,11.07
2023-04-21T19:54:14.812Z,13.07
2023-04-21T19:57:16.282Z,9.93
2023-04-21T20:00:17.411Z,9.32
2023-04-21T20:03:18.794Z,10.50
2023-04-21T20:06:20.062Z,9.93
2023-04-21T20:09:21.783Z,9.85
2023-04-21T20:12:23.022Z,9.82
2023-04-21T20:15:24.525Z,9.55
2023-04-21T20:18:25.493Z,8.00
2023-04-21T20:21:26.442Z,8.05
2023-04-21T20:24:28.025Z,8.00
2023-04-21T20:27:29.104Z,9.48
2023-04-21T20:30:29.877Z,7.50
2023-04-21T20:33:30.817Z,10.70
2023-04-21T20:36:31.805Z,7.20
2023-04-21T20:39:32.890Z,8.95
2023-04-21T20:42:35.395Z,8.10
2023-04-21T20:45:36.613Z,6.78
2023-04-21T20:48:37.329Z,8.93
2023-04-21T20:51:47.904Z,9.13
2023-04-21T20:54:48.783Z,8.80
2023-04-21T20:57:49.591Z,9.38
2023-04-21T21:00:50.544Z,10.15
2023-04-21T21:03:51.909Z,13.77
2023-04-21T21:06:53.345Z,10.25
2023-04-21T21:09:54.573Z,10.90
2023-04-21T21:12:55.584Z,9.95
2023-04-21T21:15:57.151Z,11.10
2023-04-21T21:18:58.272Z,12.13
2023-04-21T21:21:59.223Z,10.88
2023-04-21T21:25:00.212Z,9.68
2023-04-21T21:28:01.577Z,10.73
2023-04-21T21:31:02.640Z,15.40
2023-04-21T21:34:04.255Z,30.17
2023-04-21T21:37:05.318Z,28.02
2023-04-21T21:40:07.970Z,18.77
2023-04-21T21:43:10.571Z,12.52
2023-04-21T21:46:12.071Z,11.13
2023-04-21T21:49:13.338Z,9.23
2023-04-21T21:52:15.276Z,9.15
2023-04-21T21:55:15.992Z,8.77
2023-04-21T21:58:17.113Z,17.05
2023-04-21T22:01:18.459Z,9.55
2023-04-21T22:04:19.461Z,12.80
2023-04-21T22:07:21.252Z,12.80
2023-04-21T22:10:23.482Z,11.07
2023-04-21T22:13:24.491Z,10.82
2023-04-21T22:16:25.294Z,10.27
2023-04-21T22:19:26.817Z,9.82
2023-04-21T22:22:27.775Z,12.55
2023-04-21T22:25:28.732Z,14.55
2023-04-21T22:28:30.151Z,10.38
2023-04-21T22:31:31.313Z,12.35
2023-04-21T22:34:32.561Z,10.57
2023-04-21T22:37:33.442Z,11.38
2023-04-21T22:40:34.309Z,11.60
2023-04-21T22:43:36.219Z,23.15
2023-04-21T22:46:37.976Z,12.70
2023-04-21T22:49:39.376Z,11.57
2023-04-21T22:52:40.460Z,14.75
2023-04-21T22:55:41.387Z,11.10
2023-04-21T22:58:43.231Z,11.25
2023-04-21T23:01:44.307Z,18.70
2023-04-21T23:04:45.911Z,12.00
2023-04-21T23:07:47.514Z,12.25
2023-04-21T23:10:48.513Z,11.73
2023-04-21T23:13:49.573Z,13.88
2023-04-21T23:16:50.439Z,13.07
2023-04-21T23:19:51.509Z,14.23
2023-04-21T23:22:52.652Z,11.80
2023-04-21T23:25:53.527Z,14.85
2023-04-21T23:28:54.327Z,16.33
2023-04-21T23:31:55.414Z,13.73
2023-04-21T23:34:56.725Z,13.70
2023-04-21T23:37:57.745Z,17.48
2023-04-21T23:40:58.754Z,14.32
2023-04-21T23:44:00.198Z,14.13
2023-04-21T23:47:01.771Z,14.18
2023-04-21T23:50:03.837Z,15.50
2023-04-21T23:53:05.122Z,15.20
2023-04-21T23:56:06.446Z,17.30
2023-04-21T23:59:07.656Z,16.52
